Aérodrome :
LOGIN :

S'inscrire | Disclaimer

   EN    FR    IT 

 










Légende :    VFR   VFR Marginal   IFR   IFR Intensif   IFR Très Intensif
Visi : 
Plafond : 
>= 8 km
>= 3000ft
5 à 8 km
1000 à 3000 ft
1500m à 5 km
500 à 1000 ft
800 à 1500m
200 à 500 ft
< 800m
< 200 ft
Symboles :   Orages  Brouillard  Fortes neiges  Fortes précipitations  Vent > 20 kt
SIGMETs :   Divers  Orages  Givrage  Turbulence  Onde Orograph.  Cendres Volcan.






- Altitude de l'aérodrome : 218 ft
- Code IATA : LBG


LFPB - Paris / Le Bourget

DERNIER METAR :
  • 211600Z AUTO 18017KT 9000 -RA BKN013/// BKN018/// OVC023/// ///TCU 09/08 Q0990 TEMPO 21025G45KT 3000 RA SCT015CB

METARs EXPIRÉS :
  • 211530Z AUTO 16017KT 9999 -RA SCT013/// BKN022/// BKN031/// ///TCU 09/08 Q0991 TEMPO 21025G45KT 3000 RA SCT015CB
  • 211500Z AUTO 15017KT 9000 -RA FEW015/// BKN037/// BKN046/// ///TCU 09/07 Q0992 TEMPO 3000 RA SCT015CB BECMG 21020G35KT
  • 211430Z AUTO 17014KT 9999 -RA BKN019 BKN029 OVC047 09/07 Q0993 TEMPO 3000 RA SCT015CB BECMG 21020G35KT
  • 211400Z AUTO 18014KT 9999 -RA SCT024 BKN034 BKN041 09/06 Q0993 TEMPO 3000 RA BKN010 BECMG 21020G35KT
  • 211330Z AUTO 18014KT 9999 BKN023 OVC080 09/06 Q0994 TEMPO 3000 RA BKN010 BECMG 21020G35KT

TAF TAF LFPB
Valide du 21 à 12h jusqu'au 22 à 12h UTC


211100Z 2112/2212 21015G25KT 9999 BKN020
PROB40
TEMPO 2114/2203 3000 RA BKN010
BECMG 2114/2116 21020G35KT
PROB30
TEMPO 2116/2202 SCT015CB
TEMPO 2117/2121 21025G45KT
BECMG 2202/2204 32015KT
BECMG 2204/2206 27005KT
BECMG 2210/2212 CAVOK
ATIS : +33 1 48 62 43 92



MET'MAP, la Météo Aéronautique d'un coup d'oeil ! - Copyright ORBIFLY Décembre 2007 - Disclaimer

ORBIFLY MET'MAP TEAM :

Programmation & Développement : Alexandra Zaïnal
Sur une idée originale de : Baudouin d'Aumeries
Assistance à la programmation : Marc-Olivier Méhu
Soutien technique & logistique : Manuel Goepfert

Contact : metmap@orbifly.com




SOURCES & CREDITS :

   NOAA